Jharsuguda, India
Current Conditions -  °F | °C
As of 11:30 AM on Friday 28 Nov 2014 (Local Time) from VIBN Reporting Station
Haze Haze  
Wind Chill: 75°   Ceiling: Unl
Heat Index: 75°   Visibility: 1.5mi
Dew Point: 52°   Wind: 1mph
Humidity: 44%   Direction: 220°SW
Pressure: 29.94"   Gusts: NA
Location:  21.86°N, 84.02°E
Report Text: VIBN 280630Z 22001KT 2500 HZ NSC 24/11 Q1014
Loading
Personal Weather Stations






























Interactive Weather Map New forecast layout! Learn more

10-Day Weather Forecast

Advertisements
Track Severe Weather on mobile